sensor_id;sensor_type;location;lat;lon;timestamp;pressure;altitude;pressure_sealevel;temperature;humidity
74921;BME280;63483;47.384;8.860;2023-09-19T00:02:16;94545.50;;;15.17;51.12
74921;BME280;63483;47.384;8.860;2023-09-19T00:04:42;94547.75;;;15.14;51.22
74921;BME280;63483;47.384;8.860;2023-09-19T00:07:08;94546.53;;;15.16;50.90
74921;BME280;63483;47.384;8.860;2023-09-19T00:09:34;94550.59;;;15.12;50.74
74921;BME280;63483;47.384;8.860;2023-09-19T00:12:05;94558.09;;;15.15;50.89
74921;BME280;63483;47.384;8.860;2023-09-19T00:14:30;94555.47;;;15.15;50.51
74921;BME280;63483;47.384;8.860;2023-09-19T00:16:59;94547.78;;;15.07;51.07
74921;BME280;63483;47.384;8.860;2023-09-19T00:19:25;94557.91;;;15.10;50.64
74921;BME280;63483;47.384;8.860;2023-09-19T00:21:51;94555.47;;;15.08;51.04
74921;BME280;63483;47.384;8.860;2023-09-19T00:24:19;94556.50;;;15.07;50.77
74921;BME280;63483;47.384;8.860;2023-09-19T00:26:44;94560.75;;;15.08;50.89
74921;BME280;63483;47.384;8.860;2023-09-19T00:29:12;94562.81;;;15.06;51.49
74921;BME280;63483;47.384;8.860;2023-09-19T00:31:43;94574.66;;;14.84;51.55
74921;BME280;63483;47.384;8.860;2023-09-19T00:36:36;94573.78;;;14.97;51.26
74921;BME280;63483;47.384;8.860;2023-09-19T00:39:03;94571.75;;;14.99;51.08
74921;BME280;63483;47.384;8.860;2023-09-19T00:41:31;94568.50;;;14.97;50.98
74921;BME280;63483;47.384;8.860;2023-09-19T00:43:56;94570.56;;;14.95;50.81
74921;BME280;63483;47.384;8.860;2023-09-19T00:46:21;94565.25;;;15.01;51.29
74921;BME280;63483;47.384;8.860;2023-09-19T00:48:47;94571.75;;;14.99;51.01
74921;BME280;63483;47.384;8.860;2023-09-19T00:51:13;94558.53;;;15.05;50.93
74921;BME280;63483;47.384;8.860;2023-09-19T00:53:39;94556.72;;;15.06;51.07
74921;BME280;63483;47.384;8.860;2023-09-19T00:56:07;94558.94;;;15.09;51.18
74921;BME280;63483;47.384;8.860;2023-09-19T00:58:33;94560.31;;;15.11;50.96
74921;BME280;63483;47.384;8.860;2023-09-19T01:01:01;94555.88;;;15.12;51.32
74921;BME280;63483;47.384;8.860;2023-09-19T01:03:27;94564.22;;;15.09;50.82
74921;BME280;63483;47.384;8.860;2023-09-19T01:05:52;94565.22;;;15.08;51.16
74921;BME280;63483;47.384;8.860;2023-09-19T01:08:18;94571.72;;;15.12;50.96
74921;BME280;63483;47.384;8.860;2023-09-19T01:10:52;94566.00;;;15.15;51.18
74921;BME280;63483;47.384;8.860;2023-09-19T01:13:35;94569.66;;;15.14;51.48
74921;BME280;63483;47.384;8.860;2023-09-19T01:30:07;94570.66;;;15.20;51.87
74921;BME280;63483;47.384;8.860;2023-09-19T01:32:33;94574.50;;;15.17;51.73
74921;BME280;63483;47.384;8.860;2023-09-19T01:34:59;94569.66;;;15.14;51.73
74921;BME280;63483;47.384;8.860;2023-09-19T01:37:30;94577.78;;;15.13;51.41
74921;BME280;63483;47.384;8.860;2023-09-19T01:40:00;94576.97;;;15.12;51.41
74921;BME280;63483;47.384;8.860;2023-09-19T01:42:40;94585.47;;;15.14;51.59
74921;BME280;63483;47.384;8.860;2023-09-19T01:47:50;94582.84;;;15.14;51.29
74921;BME280;63483;47.384;8.860;2023-09-19T01:50:38;94589.13;;;15.13;50.53
74921;BME280;63483;47.384;8.860;2023-09-19T01:53:12;94580.84;;;15.09;50.87
74921;BME280;63483;47.384;8.860;2023-09-19T01:55:43;94583.09;;;15.06;50.70
74921;BME280;63483;47.384;8.860;2023-09-19T01:58:21;94582.47;;;15.10;50.37
74921;BME280;63483;47.384;8.860;2023-09-19T02:00:50;94583.06;;;15.13;50.30
74921;BME280;63483;47.384;8.860;2023-09-19T02:03:17;94585.47;;;15.14;50.27
74921;BME280;63483;47.384;8.860;2023-09-19T02:05:49;94578.19;;;15.16;50.37
74921;BME280;63483;47.384;8.860;2023-09-19T02:08:17;94585.06;;;15.17;50.33
74921;BME280;63483;47.384;8.860;2023-09-19T02:10:43;94580.22;;;15.14;50.26
74921;BME280;63483;47.384;8.860;2023-09-19T02:13:15;94580.22;;;15.14;50.13
74921;BME280;63483;47.384;8.860;2023-09-19T02:15:42;94580.81;;;15.16;50.09
74921;BME280;63483;47.384;8.860;2023-09-19T02:18:09;94576.56;;;15.15;49.59
74921;BME280;63483;47.384;8.860;2023-09-19T02:20:34;94569.06;;;15.12;50.19
74921;BME280;63483;47.384;8.860;2023-09-19T02:22:59;94576.97;;;15.12;50.15
74921;BME280;63483;47.384;8.860;2023-09-19T02:25:25;94576.16;;;15.11;50.20
74921;BME280;63483;47.384;8.860;2023-09-19T02:27:52;94582.84;;;15.14;50.23
74921;BME280;63483;47.384;8.860;2023-09-19T02:30:19;94584.91;;;15.12;50.43
74921;BME280;63483;47.384;8.860;2023-09-19T02:32:46;94589.13;;;15.13;50.61
74921;BME280;63483;47.384;8.860;2023-09-19T02:35:11;94588.91;;;15.15;50.41
74921;BME280;63483;47.384;8.860;2023-09-19T02:37:39;94588.13;;;15.14;50.72
74921;BME280;63483;47.384;8.860;2023-09-19T02:40:05;94588.34;;;15.13;50.87
74921;BME280;63483;47.384;8.860;2023-09-19T02:42:43;94598.50;;;15.09;51.07
74921;BME280;63483;47.384;8.860;2023-09-19T02:45:13;94600.09;;;15.10;50.94
74921;BME280;63483;47.384;8.860;2023-09-19T02:47:40;94606.41;;;15.09;50.94
74921;BME280;63483;47.384;8.860;2023-09-19T02:50:06;94595.25;;;15.07;50.78
74921;BME280;63483;47.384;8.860;2023-09-19T02:52:31;94599.13;;;15.04;51.06
74921;BME280;63483;47.384;8.860;2023-09-19T02:54:56;94602.56;;;15.05;51.02
74921;BME280;63483;47.384;8.860;2023-09-19T02:57:22;94598.31;;;15.04;50.65
74921;BME280;63483;47.384;8.860;2023-09-19T02:59:49;94605.22;;;15.05;50.93
74921;BME280;63483;47.384;8.860;2023-09-19T03:02:14;94608.25;;;15.02;50.91
74921;BME280;63483;47.384;8.860;2023-09-19T03:04:41;94602.19;;;14.95;50.31
74921;BME280;63483;47.384;8.860;2023-09-19T03:07:06;94609.69;;;14.98;50.00
74921;BME280;63483;47.384;8.860;2023-09-19T03:09:31;94615.13;;;15.03;50.33
74921;BME280;63483;47.384;8.860;2023-09-19T03:11:57;94615.75;;;15.05;50.54
74921;BME280;63483;47.384;8.860;2023-09-19T03:14:22;94608.66;;;15.05;50.91
74921;BME280;63483;47.384;8.860;2023-09-19T03:16:48;94607.44;;;15.01;50.62
74921;BME280;63483;47.384;8.860;2023-09-19T03:19:14;94608.06;;;14.97;50.21
74921;BME280;63483;47.384;8.860;2023-09-19T03:21:40;94605.63;;;15.02;50.43
74921;BME280;63483;47.384;8.860;2023-09-19T03:24:05;94604.00;;;15.01;50.90
74921;BME280;63483;47.384;8.860;2023-09-19T03:26:31;94604.59;;;15.03;50.08
74921;BME280;63483;47.384;8.860;2023-09-19T03:28:58;94600.78;;;14.99;50.43
74921;BME280;63483;47.384;8.860;2023-09-19T03:31:23;94594.88;;;14.97;50.21
74921;BME280;63483;47.384;8.860;2023-09-19T03:33:49;94591.06;;;14.92;50.36
74921;BME280;63483;47.384;8.860;2023-09-19T03:36:14;94592.88;;;14.92;50.25
74921;BME280;63483;47.384;8.860;2023-09-19T03:38:39;94593.50;;;14.87;50.08
74921;BME280;63483;47.384;8.860;2023-09-19T03:41:05;94589.84;;;14.88;50.05
74921;BME280;63483;47.384;8.860;2023-09-19T03:43:32;94587.63;;;14.85;49.83
74921;BME280;63483;47.384;8.860;2023-09-19T03:46:01;94588.22;;;14.87;49.65
74921;BME280;63483;47.384;8.860;2023-09-19T03:48:28;94589.22;;;14.86;49.63
74921;BME280;63483;47.384;8.860;2023-09-19T03:50:53;94592.06;;;14.85;49.87
74921;BME280;63483;47.384;8.860;2023-09-19T03:53:21;94594.09;;;14.89;49.93
74921;BME280;63483;47.384;8.860;2023-09-19T03:55:47;94598.56;;;14.89;49.85
74921;BME280;63483;47.384;8.860;2023-09-19T03:58:12;94594.09;;;14.89;49.78
74921;BME280;63483;47.384;8.860;2023-09-19T04:00:38;94598.34;;;14.90;49.97
74921;BME280;63483;47.384;8.860;2023-09-19T04:03:03;94598.56;;;14.96;50.38
74921;BME280;63483;47.384;8.860;2023-09-19T04:05:31;94594.88;;;14.97;50.23
74921;BME280;63483;47.384;8.860;2023-09-19T04:07:58;94595.72;;;14.97;50.38
74921;BME280;63483;47.384;8.860;2023-09-19T04:10:23;94593.28;;;14.96;50.05
74921;BME280;63483;47.384;8.860;2023-09-19T04:12:55;94583.75;;;14.95;49.75
74921;BME280;63483;47.384;8.860;2023-09-19T04:15:21;94583.16;;;14.92;49.88
74921;BME280;63483;47.384;8.860;2023-09-19T04:17:49;94589.00;;;14.95;49.72
74921;BME280;63483;47.384;8.860;2023-09-19T04:20:14;94584.16;;;14.91;49.99
74921;BME280;63483;47.384;8.860;2023-09-19T04:22:40;94587.00;;;14.90;50.18
74921;BME280;63483;47.384;8.860;2023-09-19T04:25:05;94582.53;;;14.90;50.06
74921;BME280;63483;47.384;8.860;2023-09-19T04:27:34;94590.25;;;14.92;49.85
74921;BME280;63483;47.384;8.860;2023-09-19T04:29:59;94597.34;;;14.91;50.13
74921;BME280;63483;47.384;8.860;2023-09-19T04:32:28;94594.50;;;14.93;49.94
74921;BME280;63483;47.384;8.860;2023-09-19T04:34:53;94595.13;;;14.88;49.77
74921;BME280;63483;47.384;8.860;2023-09-19T04:37:19;94603.41;;;14.92;50.10
74921;BME280;63483;47.384;8.860;2023-09-19T04:39:44;94610.31;;;14.86;50.26
74921;BME280;63483;47.384;8.860;2023-09-19T04:42:13;94604.25;;;14.92;50.03
74921;BME280;63483;47.384;8.860;2023-09-19T04:44:39;94605.84;;;14.93;50.07
74921;BME280;63483;47.384;8.860;2023-09-19T04:47:05;94610.69;;;14.97;50.17
74921;BME280;63483;47.384;8.860;2023-09-19T04:49:31;94613.97;;;14.99;49.95
74921;BME280;63483;47.384;8.860;2023-09-19T04:51:56;94620.84;;;15.00;50.08
74921;BME280;63483;47.384;8.860;2023-09-19T04:54:21;94622.47;;;15.01;50.27
74921;BME280;63483;47.384;8.860;2023-09-19T04:56:48;94622.47;;;15.01;50.66
74921;BME280;63483;47.384;8.860;2023-09-19T04:59:13;94626.72;;;15.02;50.86
74921;BME280;63483;47.384;8.860;2023-09-19T05:01:40;94627.31;;;15.04;50.55
74921;BME280;63483;47.384;8.860;2023-09-19T05:04:05;94627.94;;;15.06;50.90
74921;BME280;63483;47.384;8.860;2023-09-19T05:06:31;94625.31;;;15.06;50.80
74921;BME280;63483;47.384;8.860;2023-09-19T05:08:56;94627.09;;;15.05;50.73
74921;BME280;63483;47.384;8.860;2023-09-19T05:11:21;94627.94;;;15.06;50.64
74921;BME280;63483;47.384;8.860;2023-09-19T05:13:48;94630.56;;;15.06;51.05
74921;BME280;63483;47.384;8.860;2023-09-19T05:16:15;94634.22;;;15.05;50.89
74921;BME280;63483;47.384;8.860;2023-09-19T05:18:41;94644.78;;;15.05;50.91
74921;BME280;63483;47.384;8.860;2023-09-19T05:21:07;94638.69;;;15.04;50.77
74921;BME280;63483;47.384;8.860;2023-09-19T05:23:33;94648.41;;;15.04;50.76
74921;BME280;63483;47.384;8.860;2023-09-19T05:25:58;94652.06;;;15.03;51.23
74921;BME280;63483;47.384;8.860;2023-09-19T05:28:25;94647.63;;;15.03;51.23
74921;BME280;63483;47.384;8.860;2023-09-19T05:30:51;94644.16;;;15.03;51.40
74921;BME280;63483;47.384;8.860;2023-09-19T05:33:16;94652.06;;;15.03;51.56
74921;BME280;63483;47.384;8.860;2023-09-19T05:35:43;94652.91;;;15.03;51.42
74921;BME280;63483;47.384;8.860;2023-09-19T05:38:08;94656.13;;;15.05;51.40
74921;BME280;63483;47.384;8.860;2023-09-19T05:40:34;94662.22;;;15.06;51.63
74921;BME280;63483;47.384;8.860;2023-09-19T05:43:00;94671.75;;;15.07;51.41
74921;BME280;63483;47.384;8.860;2023-09-19T05:45:26;94674.00;;;15.03;51.40
74921;BME280;63483;47.384;8.860;2023-09-19T05:47:53;94678.84;;;15.00;50.61
74921;BME280;63483;47.384;8.860;2023-09-19T05:50:29;94685.38;;;14.90;51.26
74921;BME280;63483;47.384;8.860;2023-09-19T05:52:54;94690.25;;;14.87;51.25
74921;BME280;63483;47.384;8.860;2023-09-19T05:55:21;94692.69;;;14.88;51.26
74921;BME280;63483;47.384;8.860;2023-09-19T05:57:52;94699.56;;;14.89;51.00
74921;BME280;63483;47.384;8.860;2023-09-19T06:00:22;94710.53;;;14.93;51.23
74921;BME280;63483;47.384;8.860;2023-09-19T06:03:06;94700.59;;;14.88;51.28
74921;BME280;63483;47.384;8.860;2023-09-19T06:05:31;94702.41;;;14.88;51.37
74921;BME280;63483;47.384;8.860;2023-09-19T06:07:57;94703.25;;;14.88;51.32
74921;BME280;63483;47.384;8.860;2023-09-19T06:10:25;94704.84;;;14.89;51.70
74921;BME280;63483;47.384;8.860;2023-09-19T06:12:52;94706.47;;;14.90;51.46
74921;BME280;63483;47.384;8.860;2023-09-19T06:15:18;94698.13;;;14.93;51.85
74921;BME280;63483;47.384;8.860;2023-09-19T06:17:55;94697.72;;;14.97;51.76
74921;BME280;63483;47.384;8.860;2023-09-19T06:20:21;94693.69;;;14.94;51.74
74921;BME280;63483;47.384;8.860;2023-09-19T06:22:48;94695.91;;;14.90;51.71
74921;BME280;63483;47.384;8.860;2023-09-19T06:25:14;94697.13;;;14.88;51.65
74921;BME280;63483;47.384;8.860;2023-09-19T06:27:46;94695.13;;;14.90;51.81
74921;BME280;63483;47.384;8.860;2023-09-19T06:30:11;94709.72;;;14.92;52.03
74921;BME280;63483;47.384;8.860;2023-09-19T06:32:38;94709.09;;;14.97;52.21
74921;BME280;63483;47.384;8.860;2023-09-19T06:35:04;94714.59;;;14.96;51.89
74921;BME280;63483;47.384;8.860;2023-09-19T06:37:32;94721.06;;;15.00;51.75
74921;BME280;63483;47.384;8.860;2023-09-19T06:39:57;94709.06;;;15.04;51.66
74921;BME280;63483;47.384;8.860;2023-09-19T06:42:23;94721.84;;;15.07;51.57
74921;BME280;63483;47.384;8.860;2023-09-19T06:44:49;94716.16;;;15.10;51.63
74921;BME280;63483;47.384;8.860;2023-09-19T06:47:14;94712.94;;;15.08;51.87
74921;BME280;63483;47.384;8.860;2023-09-19T06:49:41;94715.16;;;15.11;51.60
74921;BME280;63483;47.384;8.860;2023-09-19T06:52:09;94717.78;;;15.11;51.18
74921;BME280;63483;47.384;8.860;2023-09-19T06:54:34;94715.75;;;15.13;51.00
74921;BME280;63483;47.384;8.860;2023-09-19T06:57:01;94725.72;;;15.11;51.22
74921;BME280;63483;47.384;8.860;2023-09-19T06:59:26;94723.66;;;15.13;51.57
74921;BME280;63483;47.384;8.860;2023-09-19T07:01:51;94733.63;;;15.18;51.16
74921;BME280;63483;47.384;8.860;2023-09-19T07:04:17;94729.16;;;15.18;51.34
74921;BME280;63483;47.384;8.860;2023-09-19T07:06:44;94727.31;;;15.19;51.15
74921;BME280;63483;47.384;8.860;2023-09-19T07:09:11;94722.84;;;15.19;51.18
74921;BME280;63483;47.384;8.860;2023-09-19T07:11:37;94727.31;;;15.19;51.35
74921;BME280;63483;47.384;8.860;2023-09-19T07:14:03;94726.09;;;15.21;51.17
74921;BME280;63483;47.384;8.860;2023-09-19T07:16:28;94731.97;;;15.23;51.42
74921;BME280;63483;47.384;8.860;2023-09-19T07:18:55;94735.22;;;15.25;51.58
74921;BME280;63483;47.384;8.860;2023-09-19T07:21:22;94734.81;;;15.28;51.37
74921;BME280;63483;47.384;8.860;2023-09-19T07:23:47;94744.56;;;15.28;51.06
74921;BME280;63483;47.384;8.860;2023-09-19T07:26:13;94742.50;;;15.23;51.23
74921;BME280;63483;47.384;8.860;2023-09-19T07:28:38;94742.09;;;15.26;51.13
74921;BME280;63483;47.384;8.860;2023-09-19T07:31:03;94751.88;;;15.33;51.31
74921;BME280;63483;47.384;8.860;2023-09-19T07:33:30;94743.72;;;15.27;50.94
74921;BME280;63483;47.384;8.860;2023-09-19T07:35:55;94735.81;;;15.27;51.27
74921;BME280;63483;47.384;8.860;2023-09-19T07:38:20;94748.41;;;15.25;51.42
74921;BME280;63483;47.384;8.860;2023-09-19T07:40:46;94756.13;;;15.34;51.44
74921;BME280;63483;47.384;8.860;2023-09-19T07:43:12;94749.41;;;15.38;51.02
74921;BME280;63483;47.384;8.860;2023-09-19T07:45:37;94757.75;;;15.41;50.75
74921;BME280;63483;47.384;8.860;2023-09-19T07:48:02;94754.69;;;15.44;50.85
74921;BME280;63483;47.384;8.860;2023-09-19T07:50:30;94764.44;;;15.37;51.17
74921;BME280;63483;47.384;8.860;2023-09-19T07:52:55;94766.03;;;15.45;51.18
74921;BME280;63483;47.384;8.860;2023-09-19T07:55:22;94768.09;;;15.43;50.87
74921;BME280;63483;47.384;8.860;2023-09-19T07:57:52;94769.94;;;15.36;50.70
74921;BME280;63483;47.384;8.860;2023-09-19T08:00:17;94771.94;;;15.34;51.19
74921;BME280;63483;47.384;8.860;2023-09-19T08:02:43;94759.97;;;15.38;50.90
74921;BME280;63483;47.384;8.860;2023-09-19T08:05:10;94767.88;;;15.38;50.97
74921;BME280;63483;47.384;8.860;2023-09-19T08:07:37;94776.81;;;15.37;51.16
74921;BME280;63483;47.384;8.860;2023-09-19T08:10:04;94773.16;;;15.38;50.87
74921;BME280;63483;47.384;8.860;2023-09-19T08:12:29;94777.03;;;15.42;51.12
74921;BME280;63483;47.384;8.860;2023-09-19T08:14:55;94785.16;;;15.40;51.29
74921;BME280;63483;47.384;8.860;2023-09-19T08:17:20;94782.50;;;15.40;51.00
74921;BME280;63483;47.384;8.860;2023-09-19T08:19:48;94789.22;;;15.30;51.16
74921;BME280;63483;47.384;8.860;2023-09-19T08:22:14;94780.06;;;15.39;51.00
74921;BME280;63483;47.384;8.860;2023-09-19T08:24:42;94783.53;;;15.33;51.35
74921;BME280;63483;47.384;8.860;2023-09-19T08:27:08;94786.19;;;15.33;51.04
74921;BME280;63483;47.384;8.860;2023-09-19T08:29:35;94792.06;;;15.35;50.99
74921;BME280;63483;47.384;8.860;2023-09-19T08:32:00;94800.97;;;15.34;51.31
74921;BME280;63483;47.384;8.860;2023-09-19T08:34:26;94799.38;;;15.33;51.21
74921;BME280;63483;47.384;8.860;2023-09-19T08:36:53;94800.19;;;15.33;51.08
74921;BME280;63483;47.384;8.860;2023-09-19T08:39:22;94808.28;;;15.38;50.88
74921;BME280;63483;47.384;8.860;2023-09-19T08:41:47;94802.19;;;15.38;50.91
74921;BME280;63483;47.384;8.860;2023-09-19T08:44:12;94809.91;;;15.46;51.29
74921;BME280;63483;47.384;8.860;2023-09-19T08:46:41;94804.22;;;15.49;51.42
74921;BME280;63483;47.384;8.860;2023-09-19T08:49:33;94806.84;;;15.49;51.19
74921;BME280;63483;47.384;8.860;2023-09-19T08:52:20;94815.59;;;15.43;51.10
74921;BME280;63483;47.384;8.860;2023-09-19T08:54:52;94808.69;;;15.42;51.09
74921;BME280;63483;47.384;8.860;2023-09-19T08:57:19;94813.56;;;15.45;50.99
74921;BME280;63483;47.384;8.860;2023-09-19T08:59:50;94820.25;;;15.41;51.07
74921;BME280;63483;47.384;8.860;2023-09-19T09:02:16;94817.44;;;15.36;51.29
74921;BME280;63483;47.384;8.860;2023-09-19T09:04:45;94809.91;;;15.39;51.04
74921;BME280;63483;47.384;8.860;2023-09-19T09:07:14;94815.59;;;15.43;50.92
74921;BME280;63483;47.384;8.860;2023-09-19T09:09:40;94817.63;;;15.41;50.46
74921;BME280;63483;47.384;8.860;2023-09-19T09:12:13;94823.13;;;15.33;50.57
74921;BME280;63483;47.384;8.860;2023-09-19T09:14:40;94827.56;;;15.39;50.60
74921;BME280;63483;47.384;8.860;2023-09-19T09:17:05;94824.53;;;15.42;51.09
74921;BME280;63483;47.384;8.860;2023-09-19T09:19:31;94825.53;;;15.41;51.16
74921;BME280;63483;47.384;8.860;2023-09-19T09:22:17;94827.34;;;15.47;50.56
74921;BME280;63483;47.384;8.860;2023-09-19T09:24:58;94829.19;;;15.47;50.42
74921;BME280;63483;47.384;8.860;2023-09-19T09:27:26;94826.53;;;15.47;50.00
74921;BME280;63483;47.384;8.860;2023-09-19T09:29:52;94818.22;;;15.50;49.96
74921;BME280;63483;47.384;8.860;2023-09-19T09:32:24;94825.13;;;15.51;50.77
74921;BME280;63483;47.384;8.860;2023-09-19T09:34:55;94821.84;;;15.55;50.74
74921;BME280;63483;47.384;8.860;2023-09-19T09:37:21;94830.78;;;15.54;50.52
74921;BME280;63483;47.384;8.860;2023-09-19T09:39:54;94834.25;;;15.55;50.52
74921;BME280;63483;47.384;8.860;2023-09-19T09:42:29;94836.69;;;15.56;50.12
74921;BME280;63483;47.384;8.860;2023-09-19T09:47:44;94835.03;;;15.62;49.97
74921;BME280;63483;47.384;8.860;2023-09-19T09:50:25;94833.38;;;15.68;50.48
74921;BME280;63483;47.384;8.860;2023-09-19T09:52:55;94832.38;;;15.69;50.40
74921;BME280;63483;47.384;8.860;2023-09-19T09:55:28;94838.66;;;15.68;49.92
74921;BME280;63483;47.384;8.860;2023-09-19T09:58:17;94833.38;;;15.74;50.17
74921;BME280;63483;47.384;8.860;2023-09-19T10:00:53;94828.06;;;15.81;50.63
74921;BME280;63483;47.384;8.860;2023-09-19T10:03:34;94832.50;;;15.87;51.17
74921;BME280;63483;47.384;8.860;2023-09-19T10:06:06;94830.06;;;15.92;50.55
74921;BME280;63483;47.384;8.860;2023-09-19T10:09:20;94828.81;;;16.02;50.28
74921;BME280;63483;47.384;8.860;2023-09-19T10:11:47;94827.97;;;16.08;50.42
74921;BME280;63483;47.384;8.860;2023-09-19T10:14:25;94826.16;;;16.15;50.32
74921;BME280;63483;47.384;8.860;2023-09-19T10:16:57;94829.22;;;16.12;49.42
74921;BME280;63483;47.384;8.860;2023-09-19T10:22:04;94817.22;;;16.16;49.46
74921;BME280;63483;47.384;8.860;2023-09-19T10:24:33;94819.25;;;16.14;49.40
74921;BME280;63483;47.384;8.860;2023-09-19T10:26:59;94820.84;;;16.15;49.71
74921;BME280;63483;47.384;8.860;2023-09-19T10:29:27;94821.06;;;16.20;49.62
74921;BME280;63483;47.384;8.860;2023-09-19T10:31:57;94819.94;;;16.35;49.56
74921;BME280;63483;47.384;8.860;2023-09-19T10:34:25;94819.69;;;16.49;49.80
74921;BME280;63483;47.384;8.860;2023-09-19T10:36:51;94813.69;;;16.61;48.88
74921;BME280;63483;47.384;8.860;2023-09-19T10:39:16;94811.03;;;16.67;48.33
74921;BME280;63483;47.384;8.860;2023-09-19T10:41:53;94812.59;;;16.75;48.63
74921;BME280;63483;47.384;8.860;2023-09-19T10:44:25;94818.03;;;16.87;49.12
74921;BME280;63483;47.384;8.860;2023-09-19T10:46:52;94815.72;;;16.97;49.15
74921;BME280;63483;47.384;8.860;2023-09-19T10:49:19;94816.03;;;17.08;48.01
74921;BME280;63483;47.384;8.860;2023-09-19T10:51:45;94820.88;;;17.11;47.79
74921;BME280;63483;47.384;8.860;2023-09-19T10:54:17;94817.22;;;17.12;47.71
74921;BME280;63483;47.384;8.860;2023-09-19T10:56:46;94818.38;;;17.16;47.38
74921;BME280;63483;47.384;8.860;2023-09-19T10:59:15;94819.00;;;17.18;46.62
74921;BME280;63483;47.384;8.860;2023-09-19T11:01:48;94818.56;;;17.21;46.53
74921;BME280;63483;47.384;8.860;2023-09-19T11:07:06;94811.06;;;17.18;46.15
74921;BME280;63483;47.384;8.860;2023-09-19T11:15:03;94803.22;;;17.30;44.83
74921;BME280;63483;47.384;8.860;2023-09-19T11:17:39;94800.78;;;17.28;45.81
74921;BME280;63483;47.384;8.860;2023-09-19T11:30:34;94783.16;;;17.41;45.61
74921;BME280;63483;47.384;8.860;2023-09-19T11:33:27;94787.19;;;17.43;45.84
74921;BME280;63483;47.384;8.860;2023-09-19T11:36:10;94785.56;;;17.42;46.49
74921;BME280;63483;47.384;8.860;2023-09-19T11:46:17;94766.56;;;17.70;46.61
74921;BME280;63483;47.384;8.860;2023-09-19T11:48:47;94765.66;;;17.77;45.67
74921;BME280;63483;47.384;8.860;2023-09-19T11:53:56;94764.69;;;17.89;45.32
74921;BME280;63483;47.384;8.860;2023-09-19T11:56:24;94765.50;;;17.90;44.12
74921;BME280;63483;47.384;8.860;2023-09-19T11:58:52;94773.44;;;17.90;43.25
74921;BME280;63483;47.384;8.860;2023-09-19T12:01:26;94751.69;;;17.88;43.88
74921;BME280;63483;47.384;8.860;2023-09-19T12:03:55;94759.06;;;17.86;43.39
74921;BME280;63483;47.384;8.860;2023-09-19T12:06:28;94750.78;;;17.94;44.92
74921;BME280;63483;47.384;8.860;2023-09-19T12:09:00;94752.91;;;18.04;44.02
74921;BME280;63483;47.384;8.860;2023-09-19T12:11:31;94754.56;;;18.17;43.71
74921;BME280;63483;47.384;8.860;2023-09-19T12:13:58;94749.75;;;18.25;43.53
74921;BME280;63483;47.384;8.860;2023-09-19T12:16:26;94747.03;;;18.32;42.55
74921;BME280;63483;47.384;8.860;2023-09-19T12:18:51;94746.00;;;18.33;43.29
74921;BME280;63483;47.384;8.860;2023-09-19T12:21:29;94746.03;;;18.45;43.10
74921;BME280;63483;47.384;8.860;2023-09-19T12:24:04;94745.94;;;18.52;43.73
74921;BME280;63483;47.384;8.860;2023-09-19T12:26:43;94746.66;;;18.59;43.17
74921;BME280;63483;47.384;8.860;2023-09-19T12:29:14;94751.03;;;18.65;43.61
74921;BME280;63483;47.384;8.860;2023-09-19T12:31:53;94741.69;;;18.74;43.44
74921;BME280;63483;47.384;8.860;2023-09-19T12:34:25;94732.59;;;18.70;40.83
74921;BME280;63483;47.384;8.860;2023-09-19T12:37:23;94731.53;;;18.59;40.85
74921;BME280;63483;47.384;8.860;2023-09-19T12:40:05;94731.75;;;18.58;41.03
74921;BME280;63483;47.384;8.860;2023-09-19T12:42:42;94730.72;;;18.59;41.64
74921;BME280;63483;47.384;8.860;2023-09-19T12:45:10;94729.81;;;18.65;40.23
74921;BME280;63483;47.384;8.860;2023-09-19T12:47:35;94720.69;;;18.73;40.29
74921;BME280;63483;47.384;8.860;2023-09-19T12:50:08;94720.72;;;18.85;40.16
74921;BME280;63483;47.384;8.860;2023-09-19T12:52:48;94713.81;;;18.84;40.56
74921;BME280;63483;47.384;8.860;2023-09-19T12:55:30;94716.09;;;18.68;40.81
74921;BME280;63483;47.384;8.860;2023-09-19T12:58:13;94708.38;;;18.78;40.58
74921;BME280;63483;47.384;8.860;2023-09-19T13:00:44;94707.09;;;18.81;40.00
74921;BME280;63483;47.384;8.860;2023-09-19T13:06:07;94701.91;;;18.98;39.92
74921;BME280;63483;47.384;8.860;2023-09-19T13:08:37;94698.59;;;18.91;39.79
74921;BME280;63483;47.384;8.860;2023-09-19T13:11:07;94704.38;;;19.00;40.01
74921;BME280;63483;47.384;8.860;2023-09-19T13:13:35;94697.44;;;18.99;40.94
74921;BME280;63483;47.384;8.860;2023-09-19T13:16:01;94696.84;;;19.08;41.19
74921;BME280;63483;47.384;8.860;2023-09-19T13:18:27;94692.00;;;19.05;40.20
74921;BME280;63483;47.384;8.860;2023-09-19T13:21:09;94689.25;;;19.00;40.22
74921;BME280;63483;47.384;8.860;2023-09-19T13:23:43;94688.22;;;19.01;41.31
74921;BME280;63483;47.384;8.860;2023-09-19T13:26:10;94683.25;;;19.05;40.81
74921;BME280;63483;47.384;8.860;2023-09-19T13:28:38;94686.34;;;19.14;40.68
74921;BME280;63483;47.384;8.860;2023-09-19T13:31:03;94683.34;;;19.10;40.13
74921;BME280;63483;47.384;8.860;2023-09-19T13:33:28;94680.03;;;19.15;40.52
74921;BME280;63483;47.384;8.860;2023-09-19T13:35:54;94677.47;;;19.20;40.38
74921;BME280;63483;47.384;8.860;2023-09-19T13:38:20;94668.00;;;19.24;40.48
74921;BME280;63483;47.384;8.860;2023-09-19T13:40:47;94669.63;;;19.25;40.10
74921;BME280;63483;47.384;8.860;2023-09-19T13:43:13;94667.53;;;19.27;40.54
74921;BME280;63483;47.384;8.860;2023-09-19T13:45:39;94671.81;;;19.28;39.25
74921;BME280;63483;47.384;8.860;2023-09-19T13:48:07;94669.25;;;19.33;39.39
74921;BME280;63483;47.384;8.860;2023-09-19T13:50:34;94671.41;;;19.36;39.23
74921;BME280;63483;47.384;8.860;2023-09-19T13:53:01;94665.31;;;19.36;38.18
74921;BME280;63483;47.384;8.860;2023-09-19T13:55:27;94670.94;;;19.39;39.03
74921;BME280;63483;47.384;8.860;2023-09-19T13:57:53;94663.56;;;19.41;38.98
74921;BME280;63483;47.384;8.860;2023-09-19T14:00:20;94655.41;;;19.31;38.01
74921;BME280;63483;47.384;8.860;2023-09-19T14:02:45;94653.66;;;19.37;38.26
74921;BME280;63483;47.384;8.860;2023-09-19T14:05:12;94644.59;;;19.50;38.47